Harwich, MA (02645)

7:57 AM EDT on April 30, 2017 (GMT -0400)
N2KNL / KB1VAJ Amateur Radio | | Change Station

Elev 36 ft 41.68 °N, 70.06 °W | Updated 6 seconds ago

Clear
Clear
50.5 °F
Feels Like 50.5 °F
N
6.3
Wind Variable Wind from NE
Gusts 9.2 mph

Today
High -- | Low -- °F
--% Chance of Precip.
Yesterday
High -- | Low -- °F
Precip. -- in
Pressure 30.28 in
Visibility 10.0 miles
Clouds Clear
Dew Point 40 °F
Humidity 68%
Rainfall 0.00 in
Snow Depth Not available.
5:37 AM 7:37 PM
Waxing Crescent, 22% visible
METAR KCQX 301152Z AUTO 05009G21KT 10SM CLR 09/03 A3028 RMK AO2 SLP254 T00940028 10183 20094 53037
Pressure 30.28 in
Visibility 10.0 miles
Clouds Clear
Dew Point 40 °F
Humidity 68%
Rainfall 0.00 in
Snow Depth Not available.
5:37 AM 7:37 PM
Waxing Crescent, 22% visible
METAR KCQX 301152Z AUTO 05009G21KT 10SM CLR 09/03 A3028 RMK AO2 SLP254 T00940028 10183 20094 53037

Get Severe Weather Alerts

Thanks for signing up!

Be on the lookout for a verification email in your inbox.

You'll start receiving the daily forecast at 8 AM.

×

10-Day Weather Forecast

Almanac

Astronomy

Apr. 30, 2017 Rise Set
Actual Time
Civil Twilight
Nautical Twilight
Astronomical Twilight
Moon
Length of Visible Light
Length of Day
Tomorrow will be .
, % of the Moon is Illuminated

Today's Extremes

State Highs State Lows

Community

WunderPhotos

WunderBlog® & News

Nearby

Air Quality

  Air Quality AQ Index Pollutant
Not available.

Snow Depth

Station Depth Elevation

Earthquake Activity

City Distance Mag. Time & Date
Minimum magnitude displayed is 2.5.

Coastal Water Temperatures

Place Temperature

Stations

Nearby Weather Stations

Station Location Temp. Windchill Dew Point Humidity Wind Precip. Elev Updated Type
                   

Watches & Warnings

There are currently no watches in effect.